Station: Wadeye (Port Keats)

  Atmospheric Gas Attenuation - ITU Rec 676-11   --------------- db/100km ---------------
Date Time Temp RH % AH g/m3 Dew Point Wind Direction Speed kph Gust kph Barometer mB Rainfall Since 9am 24GHz 47GHz 76GHz 122GHz 134GHz 241GHz
11 21:20 28.9 74 21.14 23.8 13 15 1009.9 0 45.1 42.0 82.9 219.6 244.9 851.4
11 21:10 28.7 73 20.63 23.4 15 15 1009.9 0 44.0 41.2 80.8 213.8 237.8 826.5
11 21:00 28.6 73 20.52 23.3 13 17 1009.9 0 43.8 41.0 80.4 212.7 236.4 821.8
11 20:50 28 73 19.85 22.7 11 13 1009.8 0 42.5 40.1 77.9 206.1 228.1 792.8
11 20:40 28.1 72 19.69 22.6 11 11 1009.7 0 42.1 39.7 77.0 203.9 225.4 783.4
11 20:30 28 73 19.85 22.7 13 17 1009.5 0 42.5 40.0 77.9 206.1 228.1 792.7
11 20:20 28.2 71 19.52 22.4 6 7 1009.9 0 41.7 39.4 76.2 201.6 222.6 773.6
11 20:10 28.4 71 19.74 22.6 9 11 1010 0 42.2 39.7 77.0 203.7 225.3 783.0
11 20:00 28.4 71 19.74 22.6 15 20 1009.9 0 42.2 39.7 77.0 203.7 225.3 783.0
11 19:50 28.6 72 20.24 23.1 13 15 1009.6 0 43.2 40.5 79.0 209.2 232.1 806.9
11 19:40 28.6 73 20.52 23.3 9 11 1009.1 0 43.8 41.0 80.3 212.6 236.3 821.3
11 19:30 28.5 72 20.13 23 7 9 1009 0 43.0 40.3 78.6 208.1 230.7 801.8
11 19:20 28.7 71 20.06 23.1 6 7 1008.8 0 42.8 40.1 78.1 206.6 229.0 796.0
11 19:10 28.8 71 20.17 23.2 6 7 1008.6 0 43.1 40.2 78.5 207.7 230.3 800.5
11 19:00 28.7 71 20.06 23.1 7 13 1008.4 0 42.8 40.0 78.0 206.6 228.9 795.7
11 18:50 28.7 71 20.06 22.9 7 9 1008.3 0 42.8 40.0 78.0 206.6 228.9 795.7
11 18:40 28.6 71 19.96 22.8 4 7 1008.5 0 42.6 39.9 77.7 205.6 227.8 791.6
11 18:30 28.8 68 19.32 22.5 11 17 1008.3 0 41.3 38.6 74.6 197.3 217.6 756.4
11 18:20 29 66 18.96 22.2 7 7 1008.8 0 40.5 37.9 72.8 192.6 211.9 736.4
11 18:10 28.5 70 19.57 22.5 0 0 1008.9 0 41.8 39.3 76.0 201.2 222.3 772.6
11 18:00 28.6 68 19.11 22.1 6 9 1008.9 0 40.8 38.4 73.8 195.4 215.2 748.0
11 17:50 28.5 68 19.01 22 7 9 1009 0 40.6 38.2 73.5 194.5 214.1 743.9
11 17:40 28.4 68 18.9 21.9 15 17 1009.1 0 40.4 38.1 73.1 193.5 212.7 739.3
11 17:30 28.6 67 18.83 21.9 19 35 1009.1 0 40.3 37.9 72.6 192.1 211.2 733.9
11 17:20 29.2 64 18.59 21.9 22 28 1009.1 0 39.7 37.2 71.0 187.8 206.0 716.1
11 17:10 30.9 68 21.65 24.5 6 7 1008.5 0 45.9 41.9 83.0 219.9 245.9 855.1
11 17:00 30.7 66 20.79 23.6 11 15 1008.2 0 44.2 40.4 79.3 210.0 233.6 812.4
11 16:50 30.8 65 20.58 23.5 13 17 1007.9 0 43.7 40.0 78.2 207.1 230.2 800.4
11 16:40 31.1 63 20.28 23.2 9 13 1008 0 43.0 39.3 76.6 202.7 224.9 782.0
11 16:30 31.3 60 19.52 22.6 9 15 1008.1 0 41.4 37.9 73.0 193.3 213.4 742.0
11 16:20 31.5 61 20.06 23.3 7 9 1007.7 0 42.5 38.7 75.2 199.0 220.5 766.8
11 16:10 31.6 57 18.84 22.3 11 13 1007.4 0 40.0 36.5 69.8 184.7 202.9 705.5
11 16:00 32 55 18.57 22.1 13 20 1007.6 0 39.4 35.9 68.3 180.7 198.1 688.9
11 15:50 33.2 54 19.43 22.9 17 20 1007.8 0 41.0 36.9 70.9 187.6 206.9 719.5
11 15:40 33.5 53 19.38 22.6 13 15 1007.6 0 40.9 36.6 70.4 186.3 205.3 714.2
11 15:30 33.4 49 17.82 21.5 15 22 1007.6 0 37.7 34.1 64.0 169.3 184.5 641.7
11 15:20 33.2 50 17.99 21.4 17 19 1007.6 0 38.1 34.4 64.9 171.6 187.3 651.2
11 15:10 33.7 49 18.11 21.5 17 20 1007.6 0 38.3 34.4 64.9 171.8 187.6 652.6
11 15:00 33.4 48 17.46 21.2 13 19 1007.7 0 36.9 33.5 62.5 165.5 179.8 625.2
11 14:50 33.6 48 17.64 21.1 13 15 1007.8 0 37.3 33.7 63.1 167.0 181.7 631.9
11 14:40 34.5 48 18.5 22.2 11 15 1007.9 0 39.0 34.8 65.9 174.3 190.9 664.1
11 14:30 34.5 48 18.5 21.9 13 19 1008 0 39.0 34.8 65.9 174.3 190.9 664.1
11 14:20 34.2 48 18.21 21.9 13 15 1008.1 0 38.4 34.4 64.9 171.9 187.8 653.3
11 14:10 34.3 48 18.3 22 15 17 1008.3 0 38.6 34.5 65.2 172.6 188.8 656.7
11 14:00 34.2 50 18.97 22.3 13 19 1008.3 0 40.0 35.7 68.1 180.2 198.0 688.8
11 13:50 34.1 47 17.74 21.2 13 17 1008.4 0 37.5 33.7 63.2 167.1 181.9 632.7
11 13:40 34.1 49 18.49 21.9 11 13 1008.4 0 39.0 34.9 66.2 175.2 191.8 667.3
11 13:30 34.1 47 17.74 21.5 11 17 1008.6 0 37.5 33.7 63.2 167.1 181.9 632.8
11 13:20 34.3 47 17.92 21.7 13 15 1008.7 0 37.8 33.9 63.7 168.6 183.8 639.4
11 13:10 33.9 47 17.55 21 7 7 1008.9 0 37.1 33.5 62.6 165.5 179.9 625.8
11 13:00 34.4 48 18.4 21.8 9 15 1009.1 0 38.8 34.7 65.6 173.6 190.0 660.9
11 12:50 34.3 45 17.16 21 7 7 1009.4 0 36.2 32.7 60.7 160.7 174.0 605.3
11 12:40 34.1 47 17.74 21.5 9 11 1009.6 0 37.4 33.8 63.2 167.2 182.1 633.2
11 12:30 34.2 50 18.97 22.6 7 13 1009.7 0 40.0 35.7 68.1 180.4 198.2 689.5
11 12:20 33.8 52 19.32 22.6 9 11 1009.9 0 40.7 36.5 70.0 185.2 204.0 709.7
11 12:10 32.9 51 18.07 21.7 6 7 1010.1 0 38.2 34.8 65.6 173.5 189.4 658.6
11 12:00 33.5 53 19.38 22.6 7 13 1010.3 0 40.9 36.8 70.5 186.7 205.7 715.6
11 11:50 33.1 51 18.26 21.6 9 13 1010.5 0 38.6 35.0 66.2 175.2 191.5 666.0
11 11:40 32.7 53 18.58 21.9 11 13 1010.7 0 39.3 35.7 67.9 179.6 196.9 684.7
11 11:30 33.3 55 19.9 23.3 9 13 1010.9 0 42.0 37.8 73.0 193.1 213.6 742.9
11 11:20 33.1 61 21.84 24.8 6 7 1011 0 46.0 41.3 81.7 216.4 242.0 841.9
11 11:10 32.5 57 19.77 22.9 6 9 1011 0 41.8 37.9 73.2 193.6 214.0 744.3
11 11:00 32.6 62 21.62 24.4 7 15 1011 0 45.6 41.1 81.2 215.1 240.4 836.1
11 10:50 32.2 64 21.84 24.5 6 9 1011.1 0 46.2 41.7 82.7 218.9 244.9 851.9
11 10:40 31.8 67 22.39 24.9 6 9 1011.2 0 47.3 43.0 85.7 226.9 254.6 885.2
11 10:30 31.3 64 20.82 23.9 6 17 1011.2 0 44.1 40.3 79.0 209.1 232.7 809.2
11 10:20 31.4 71 23.22 25.7 0 0 1011.2 0 49.1 44.7 90.0 238.5 268.7 934.4
11 10:10 30.3 73 22.5 24.9 6 7 1011.2 0 47.8 44.0 87.9 232.8 261.4 908.9
11 10:00 30.2 73 22.38 24.8 6 11 1011.1 0 47.5 43.8 87.4 231.5 259.9 903.6
11 09:50 30.5 73 22.75 25.1 7 9 1011.1 0 48.3 44.3 88.9 235.3 264.6 919.9
11 09:40 30.4 73 22.63 25 0 0 1011 0 48.0 44.1 88.4 234.1 263.1 914.6
11 09:30 29.9 72 21.72 24.3 4 9 1010.9 0 46.2 42.7 84.6 224.1 250.7 871.5
11 09:20 29.7 76 22.68 25 0 0 1010.8 0 48.2 44.6 89.4 236.9 266.3 925.7
11 09:10 29.3 78 22.78 25.1 0 0 1010.7 0 48.5 45.0 90.4 239.4 269.3 936.1
11 09:00 29.3 80 23.36 25.5 2 7 1010.7 0 49.7 46.2 93.2 247.0 278.6 968.3
11 08:50 29.2 81 23.52 25.6 0 0 1010.6 0 50.1 46.5 94.2 249.4 281.5 978.5
11 08:40 28.5 83 23.2 25.3 2 6 1010.5 0 49.5 46.3 93.4 247.5 279.0 969.6
11 08:30 28.3 85 23.5 25.5 2 7 1010.5 0 50.1 47.0 95.2 252.1 284.6 989.2
11 08:20 27.7 86 23.01 25.1 0 0 1010.5 0 49.2 46.4 93.5 247.6 278.9 969.2
11 08:10 27.1 88 22.77 24.9 0 0 1010.4 0 48.8 46.2 93.0 246.4 277.2 963.3
11 08:00 26.7 90 22.78 24.9 0 0 1010.4 0 48.8 46.5 93.6 247.8 278.9 969.1
11 07:50 26.2 91 22.4 24.6 0 0 1010.4 0 48.1 46.0 92.3 244.4 274.5 953.8
11 07:40 25.4 91 21.42 23.8 0 0 1010.3 0 46.1 44.4 88.3 233.8 261.4 908.0
11 07:30 25 90 20.72 23.2 0 0 1010.2 0 44.6 43.2 85.3 225.8 251.4 873.3
11 07:20 25 90 20.72 23.2 0 0 1010 0 44.6 43.2 85.3 225.8 251.4 873.2
11 07:10 25 90 20.72 23.2 0 0 1009.9 0 44.6 43.2 85.3 225.8 251.4 873.2
11 07:00 25.1 90 20.83 23.3 0 0 1009.9 0 44.9 43.4 85.7 226.9 252.8 878.2
11 06:50 25.7 91 21.79 24.1 0 0 1009.8 0 46.8 45.0 89.8 237.7 266.3 925.0
11 06:40 25.7 91 21.79 24.1 0 0 1009.8 0 46.8 45.0 89.8 237.7 266.3 925.0
11 06:30 25.8 91 21.91 24.2 0 0 1009.6 0 47.1 45.2 90.3 239.0 267.8 930.4
11 06:20 25.8 91 21.91 24.2 0 0 1009.6 0 47.1 45.2 90.3 239.0 267.8 930.4
11 06:10 25.9 91 22.03 24.3 0 0 1009.6 0 47.3 45.3 90.7 240.3 269.4 936.0
11 06:00 25.9 91 22.03 24.3 6 7 1009.6 0 47.3 45.3 90.7 240.3 269.4 936.0
11 05:50 25.8 91 21.91 24.2 6 6 1009.5 0 47.1 45.2 90.2 239.0 267.8 930.4
11 05:40 25.8 91 21.91 24.2 0 0 1009.4 0 47.1 45.2 90.2 238.9 267.8 930.3
11 04:50 25.1 91 21.07 23.5 6 6 1008.8 0 45.4 43.8 86.8 229.9 256.5 891.0
11 04:40 25.4 90 21.19 23.6 4 6 1008.7 0 45.6 43.9 87.1 230.5 257.4 894.1
11 04:30 25.5 90 21.31 23.7 0 0 1008.7 0 45.9 44.1 87.6 231.8 259.0 899.6
11 04:20 25.9 91 22.03 24.3 0 0 1008.7 0 47.3 45.3 90.7 240.1 269.3 935.5
11 04:10 26.4 91 22.65 24.8 0 0 1008.7 0 48.6 46.3 93.2 246.8 277.6 964.5

Last Refresh: 11-Apr-2021 21:27:20

Bureau of Meteorology